This is the latest recevied weather packets stored in our database for station/object WX5RP. If no packets are shown the sender has not sent any weather packets the latest 10 day(s).
| Time | Temp. | Humidity | Pressure | Rain* | Wind** | Luminosity | Snow |
|---|---|---|---|---|---|---|---|
| 1778312116 | 2.78° C | 68% | 1022.3 hPa | 0 mm | - | 0 W/m² | - |
| 1778311516 | 3.89° C | 65% | 1021.8 hPa | 0 mm | - | 0 W/m² | - |
| 1778310916 | 5.56° C | 60% | 1022.4 hPa | 0 mm | - | 0 W/m² | - |
| 1778310316 | 6.67° C | 58% | 1022.2 hPa | 0 mm | - | 0 W/m² | - |
| 1778309716 | 5° C | 65% | 1022.5 hPa | 0 mm | - | 0 W/m² | - |
| 1778309116 | 7.22° C | 59% | 1022.8 hPa | 0 mm | - | 0 W/m² | - |
| 1778308516 | 7.78° C | 55% | 1022.4 hPa | 0 mm | - | 0 W/m² | - |
| 1778307916 | 6.11° C | 64% | 1022.8 hPa | 0 mm | - | 0 W/m² | - |
| 1778307316 | 6.11° C | 63% | 1022.8 hPa | 0 mm | - | 0 W/m² | - |
| 1778306716 | 7.22° C | 59% | 1022.4 hPa | 0 mm | - | 0 W/m² | - |
| 1778306116 | 6.67° C | 61% | 1022.3 hPa | 0 mm | - | 0 W/m² | - |
| 1778305516 | 8.33° C | 54% | 1022.3 hPa | 0 mm | - | 0 W/m² | - |
| 1778304915 | 8.89° C | 51% | 1021.6 hPa | 0 mm | - | 0 W/m² | - |
| 1778304315 | 9.44° C | 47% | 1021.4 hPa | 0 mm | - | 0 W/m² | - |
| 1778303716 | 10° C | 46% | 1021.7 hPa | 0 mm | - | 0 W/m² | - |
| 1778303115 | 10° C | 45% | 1022.4 hPa | 0 mm | - | 0 W/m² | - |
| 1778302517 | 10.56° C | 48% | 1021.5 hPa | 0 mm | - | 0 W/m² | - |
| 1778301918 | 11.67° C | 40% | 1021.8 hPa | 0 mm | - | 0 W/m² | - |
| 1778301317 | 12.78° C | 38% | 1021.7 hPa | 0 mm | - | 0 W/m² | - |
| 1778300717 | 12.78° C | 37% | 1021.3 hPa | 0 mm | - | 0 W/m² | - |
| 1778300117 | 12.78° C | 37% | 1021 hPa | 0 mm | - | 0 W/m² | - |
| 1778299517 | 13.33° C | 38% | 1020.9 hPa | 0 mm | - | 0 W/m² | - |
| 1778298917 | 13.89° C | 36% | 1021.4 hPa | 0 mm | - | 0 W/m² | - |
| 1778298317 | 12.22° C | 41% | 1020.8 hPa | 0 mm | - | 0 W/m² | - |
| 1778297718 | 12.22° C | 45% | 1020.1 hPa | 0 mm | - | 0 W/m² | - |
* Rain latest hour (hover to see other rain measurements)
** Current wind speed in m/s (hover to see current wind gust speed)